sensor_id;sensor_type;location;lat;lon;timestamp;P1;P2;P0
49914;PMS5003;35806;47.958;13.158;2023-09-07T00:02:10;17;17;
49914;PMS5003;35806;47.958;13.158;2023-09-07T00:04:37;20;17;
49914;PMS5003;35806;47.958;13.158;2023-09-07T00:07:05;19;18;
49914;PMS5003;35806;47.958;13.158;2023-09-07T00:09:32;15;15;
49914;PMS5003;35806;47.958;13.158;2023-09-07T00:12:00;18;16;
49914;PMS5003;35806;47.958;13.158;2023-09-07T00:14:27;15;15;
49914;PMS5003;35806;47.958;13.158;2023-09-07T00:16:54;19;19;
49914;PMS5003;35806;47.958;13.158;2023-09-07T00:19:21;17;17;
49914;PMS5003;35806;47.958;13.158;2023-09-07T00:21:49;19;14;
49914;PMS5003;35806;47.958;13.158;2023-09-07T00:24:16;18;18;
49914;PMS5003;35806;47.958;13.158;2023-09-07T00:26:44;18;16;
49914;PMS5003;35806;47.958;13.158;2023-09-07T00:29:12;17;16;
49914;PMS5003;35806;47.958;13.158;2023-09-07T00:31:40;17;17;
49914;PMS5003;35806;47.958;13.158;2023-09-07T00:34:06;18;16;
49914;PMS5003;35806;47.958;13.158;2023-09-07T00:36:34;17;15;
49914;PMS5003;35806;47.958;13.158;2023-09-07T00:39:01;17;16;
49914;PMS5003;35806;47.958;13.158;2023-09-07T00:41:28;18;17;
49914;PMS5003;35806;47.958;13.158;2023-09-07T00:43:56;17;17;
49914;PMS5003;35806;47.958;13.158;2023-09-07T00:46:23;21;18;
49914;PMS5003;35806;47.958;13.158;2023-09-07T00:48:50;20;20;
49914;PMS5003;35806;47.958;13.158;2023-09-07T00:51:17;18;17;
49914;PMS5003;35806;47.958;13.158;2023-09-07T00:53:45;20;18;
49914;PMS5003;35806;47.958;13.158;2023-09-07T00:56:12;16;14;
49914;PMS5003;35806;47.958;13.158;2023-09-07T00:58:40;13;13;
49914;PMS5003;35806;47.958;13.158;2023-09-07T01:15:29;17;16;
49914;PMS5003;35806;47.958;13.158;2023-09-07T01:17:57;13;13;
49914;PMS5003;35806;47.958;13.158;2023-09-07T01:20:25;18;15;
49914;PMS5003;35806;47.958;13.158;2023-09-07T01:22:53;20;18;
49914;PMS5003;35806;47.958;13.158;2023-09-07T01:25:21;18;15;
49914;PMS5003;35806;47.958;13.158;2023-09-07T01:27:49;21;20;
49914;PMS5003;35806;47.958;13.158;2023-09-07T01:30:18;19;18;
49914;PMS5003;35806;47.958;13.158;2023-09-07T01:32:45;15;15;
49914;PMS5003;35806;47.958;13.158;2023-09-07T01:35:13;19;17;
49914;PMS5003;35806;47.958;13.158;2023-09-07T01:37:57;20;19;
49914;PMS5003;35806;47.958;13.158;2023-09-07T01:40:25;20;20;
49914;PMS5003;35806;47.958;13.158;2023-09-07T01:42:52;21;21;
49914;PMS5003;35806;47.958;13.158;2023-09-07T01:45:19;18;16;
49914;PMS5003;35806;47.958;13.158;2023-09-07T01:47:46;16;15;
49914;PMS5003;35806;47.958;13.158;2023-09-07T01:50:13;20;20;
49914;PMS5003;35806;47.958;13.158;2023-09-07T01:52:41;18;16;
49914;PMS5003;35806;47.958;13.158;2023-09-07T01:55:09;20;20;
49914;PMS5003;35806;47.958;13.158;2023-09-07T01:57:36;18;17;
49914;PMS5003;35806;47.958;13.158;2023-09-07T02:00:04;20;19;
49914;PMS5003;35806;47.958;13.158;2023-09-07T02:02:32;22;17;
49914;PMS5003;35806;47.958;13.158;2023-09-07T02:04:59;17;17;
49914;PMS5003;35806;47.958;13.158;2023-09-07T02:07:26;19;17;
49914;PMS5003;35806;47.958;13.158;2023-09-07T02:09:54;21;20;
49914;PMS5003;35806;47.958;13.158;2023-09-07T02:12:21;19;19;
49914;PMS5003;35806;47.958;13.158;2023-09-07T02:14:48;24;21;
49914;PMS5003;35806;47.958;13.158;2023-09-07T02:17:15;23;21;
49914;PMS5003;35806;47.958;13.158;2023-09-07T02:19:43;19;19;
49914;PMS5003;35806;47.958;13.158;2023-09-07T02:22:11;17;16;
49914;PMS5003;35806;47.958;13.158;2023-09-07T02:24:38;16;16;
49914;PMS5003;35806;47.958;13.158;2023-09-07T02:27:05;16;13;
49914;PMS5003;35806;47.958;13.158;2023-09-07T02:29:33;19;18;
49914;PMS5003;35806;47.958;13.158;2023-09-07T02:32:00;18;18;
49914;PMS5003;35806;47.958;13.158;2023-09-07T02:34:27;18;18;
49914;PMS5003;35806;47.958;13.158;2023-09-07T02:36:54;20;18;
49914;PMS5003;35806;47.958;13.158;2023-09-07T02:39:21;15;15;
49914;PMS5003;35806;47.958;13.158;2023-09-07T02:41:49;18;17;
49914;PMS5003;35806;47.958;13.158;2023-09-07T02:44:18;21;19;
49914;PMS5003;35806;47.958;13.158;2023-09-07T02:46:45;21;20;
49914;PMS5003;35806;47.958;13.158;2023-09-07T02:49:12;19;19;
49914;PMS5003;35806;47.958;13.158;2023-09-07T02:51:40;21;21;
49914;PMS5003;35806;47.958;13.158;2023-09-07T02:54:07;18;17;
49914;PMS5003;35806;47.958;13.158;2023-09-07T02:56:34;17;17;
49914;PMS5003;35806;47.958;13.158;2023-09-07T02:59:01;17;17;
49914;PMS5003;35806;47.958;13.158;2023-09-07T03:01:28;17;17;
49914;PMS5003;35806;47.958;13.158;2023-09-07T03:03:55;19;18;
49914;PMS5003;35806;47.958;13.158;2023-09-07T03:06:22;22;21;
49914;PMS5003;35806;47.958;13.158;2023-09-07T03:08:49;19;19;
49914;PMS5003;35806;47.958;13.158;2023-09-07T03:11:17;19;17;
49914;PMS5003;35806;47.958;13.158;2023-09-07T03:13:45;15;15;
49914;PMS5003;35806;47.958;13.158;2023-09-07T03:16:12;18;16;
49914;PMS5003;35806;47.958;13.158;2023-09-07T03:18:38;19;17;
49914;PMS5003;35806;47.958;13.158;2023-09-07T03:21:06;15;15;
49914;PMS5003;35806;47.958;13.158;2023-09-07T03:23:33;22;20;
49914;PMS5003;35806;47.958;13.158;2023-09-07T03:26:01;21;21;
49914;PMS5003;35806;47.958;13.158;2023-09-07T03:28:28;18;18;
49914;PMS5003;35806;47.958;13.158;2023-09-07T03:30:55;20;19;
49914;PMS5003;35806;47.958;13.158;2023-09-07T03:33:22;18;17;
49914;PMS5003;35806;47.958;13.158;2023-09-07T03:35:50;21;20;
49914;PMS5003;35806;47.958;13.158;2023-09-07T03:38:17;15;15;
49914;PMS5003;35806;47.958;13.158;2023-09-07T03:40:45;22;20;
49914;PMS5003;35806;47.958;13.158;2023-09-07T03:43:13;23;23;
49914;PMS5003;35806;47.958;13.158;2023-09-07T03:45:40;20;19;
49914;PMS5003;35806;47.958;13.158;2023-09-07T03:48:07;19;19;
49914;PMS5003;35806;47.958;13.158;2023-09-07T03:50:34;24;23;
49914;PMS5003;35806;47.958;13.158;2023-09-07T03:53:01;19;16;
49914;PMS5003;35806;47.958;13.158;2023-09-07T03:55:28;19;19;
49914;PMS5003;35806;47.958;13.158;2023-09-07T03:57:55;19;19;
49914;PMS5003;35806;47.958;13.158;2023-09-07T04:00:22;19;19;
49914;PMS5003;35806;47.958;13.158;2023-09-07T04:02:49;24;21;
49914;PMS5003;35806;47.958;13.158;2023-09-07T04:05:16;22;22;
49914;PMS5003;35806;47.958;13.158;2023-09-07T04:07:43;21;17;
49914;PMS5003;35806;47.958;13.158;2023-09-07T04:10:10;19;19;
49914;PMS5003;35806;47.958;13.158;2023-09-07T04:12:38;26;24;
49914;PMS5003;35806;47.958;13.158;2023-09-07T04:15:05;20;20;
49914;PMS5003;35806;47.958;13.158;2023-09-07T04:17:33;22;20;
49914;PMS5003;35806;47.958;13.158;2023-09-07T04:20:00;18;18;
49914;PMS5003;35806;47.958;13.158;2023-09-07T04:22:27;21;18;
49914;PMS5003;35806;47.958;13.158;2023-09-07T04:24:54;20;18;
49914;PMS5003;35806;47.958;13.158;2023-09-07T04:27:22;22;19;
49914;PMS5003;35806;47.958;13.158;2023-09-07T04:29:49;18;18;
49914;PMS5003;35806;47.958;13.158;2023-09-07T04:32:17;19;17;
49914;PMS5003;35806;47.958;13.158;2023-09-07T04:34:44;21;20;
49914;PMS5003;35806;47.958;13.158;2023-09-07T04:37:11;20;17;
49914;PMS5003;35806;47.958;13.158;2023-09-07T04:39:59;21;20;
49914;PMS5003;35806;47.958;13.158;2023-09-07T04:42:26;23;22;
49914;PMS5003;35806;47.958;13.158;2023-09-07T04:44:54;20;20;
49914;PMS5003;35806;47.958;13.158;2023-09-07T04:47:21;21;19;
49914;PMS5003;35806;47.958;13.158;2023-09-07T04:49:49;24;24;
49914;PMS5003;35806;47.958;13.158;2023-09-07T04:52:17;20;19;
49914;PMS5003;35806;47.958;13.158;2023-09-07T04:54:49;24;20;
49914;PMS5003;35806;47.958;13.158;2023-09-07T04:57:16;21;19;
49914;PMS5003;35806;47.958;13.158;2023-09-07T04:59:48;21;20;
49914;PMS5003;35806;47.958;13.158;2023-09-07T05:02:15;18;17;
49914;PMS5003;35806;47.958;13.158;2023-09-07T05:04:42;19;18;
49914;PMS5003;35806;47.958;13.158;2023-09-07T05:07:10;21;21;
49914;PMS5003;35806;47.958;13.158;2023-09-07T05:09:38;19;19;
49914;PMS5003;35806;47.958;13.158;2023-09-07T05:12:05;19;18;
49914;PMS5003;35806;47.958;13.158;2023-09-07T05:14:32;20;20;
49914;PMS5003;35806;47.958;13.158;2023-09-07T05:17:00;21;21;
49914;PMS5003;35806;47.958;13.158;2023-09-07T05:19:27;19;19;
49914;PMS5003;35806;47.958;13.158;2023-09-07T05:21:55;24;20;
49914;PMS5003;35806;47.958;13.158;2023-09-07T05:24:22;22;22;
49914;PMS5003;35806;47.958;13.158;2023-09-07T05:26:49;21;20;
49914;PMS5003;35806;47.958;13.158;2023-09-07T05:29:17;20;20;
49914;PMS5003;35806;47.958;13.158;2023-09-07T05:31:44;20;18;
49914;PMS5003;35806;47.958;13.158;2023-09-07T05:34:12;18;16;
49914;PMS5003;35806;47.958;13.158;2023-09-07T05:36:40;17;17;
49914;PMS5003;35806;47.958;13.158;2023-09-07T05:39:07;21;20;
49914;PMS5003;35806;47.958;13.158;2023-09-07T05:41:39;17;17;
49914;PMS5003;35806;47.958;13.158;2023-09-07T05:44:06;16;16;
49914;PMS5003;35806;47.958;13.158;2023-09-07T05:46:33;22;20;
49914;PMS5003;35806;47.958;13.158;2023-09-07T05:49:01;20;17;
49914;PMS5003;35806;47.958;13.158;2023-09-07T05:51:28;20;17;
49914;PMS5003;35806;47.958;13.158;2023-09-07T05:53:55;20;19;
49914;PMS5003;35806;47.958;13.158;2023-09-07T05:56:23;19;18;
49914;PMS5003;35806;47.958;13.158;2023-09-07T05:58:50;17;17;
49914;PMS5003;35806;47.958;13.158;2023-09-07T06:01:18;16;15;
49914;PMS5003;35806;47.958;13.158;2023-09-07T06:03:45;18;17;
49914;PMS5003;35806;47.958;13.158;2023-09-07T06:06:13;19;16;
49914;PMS5003;35806;47.958;13.158;2023-09-07T06:08:40;19;17;
49914;PMS5003;35806;47.958;13.158;2023-09-07T06:11:07;19;19;
49914;PMS5003;35806;47.958;13.158;2023-09-07T06:13:35;18;17;
49914;PMS5003;35806;47.958;13.158;2023-09-07T06:16:02;24;21;
49914;PMS5003;35806;47.958;13.158;2023-09-07T06:18:29;18;18;
49914;PMS5003;35806;47.958;13.158;2023-09-07T06:20:56;21;21;
49914;PMS5003;35806;47.958;13.158;2023-09-07T06:23:24;20;18;
49914;PMS5003;35806;47.958;13.158;2023-09-07T06:25:50;16;15;
49914;PMS5003;35806;47.958;13.158;2023-09-07T06:28:18;21;19;
49914;PMS5003;35806;47.958;13.158;2023-09-07T06:30:45;21;17;
49914;PMS5003;35806;47.958;13.158;2023-09-07T06:33:12;21;21;
49914;PMS5003;35806;47.958;13.158;2023-09-07T06:35:49;19;17;
49914;PMS5003;35806;47.958;13.158;2023-09-07T06:38:16;20;19;
49914;PMS5003;35806;47.958;13.158;2023-09-07T06:40:47;21;19;
49914;PMS5003;35806;47.958;13.158;2023-09-07T06:43:15;14;14;
49914;PMS5003;35806;47.958;13.158;2023-09-07T06:45:42;15;15;
49914;PMS5003;35806;47.958;13.158;2023-09-07T06:48:15;19;17;
49914;PMS5003;35806;47.958;13.158;2023-09-07T06:50:43;16;16;
49914;PMS5003;35806;47.958;13.158;2023-09-07T06:53:10;14;14;
49914;PMS5003;35806;47.958;13.158;2023-09-07T06:55:38;19;16;
49914;PMS5003;35806;47.958;13.158;2023-09-07T06:58:05;21;16;
49914;PMS5003;35806;47.958;13.158;2023-09-07T07:00:33;19;18;
49914;PMS5003;35806;47.958;13.158;2023-09-07T07:03:01;17;14;
49914;PMS5003;35806;47.958;13.158;2023-09-07T07:05:28;14;14;
49914;PMS5003;35806;47.958;13.158;2023-09-07T07:07:56;19;15;
49914;PMS5003;35806;47.958;13.158;2023-09-07T07:10:23;15;15;
49914;PMS5003;35806;47.958;13.158;2023-09-07T07:12:51;21;20;
49914;PMS5003;35806;47.958;13.158;2023-09-07T07:15:18;18;18;
49914;PMS5003;35806;47.958;13.158;2023-09-07T07:17:45;18;16;
49914;PMS5003;35806;47.958;13.158;2023-09-07T07:20:12;18;17;
49914;PMS5003;35806;47.958;13.158;2023-09-07T07:22:40;17;16;
49914;PMS5003;35806;47.958;13.158;2023-09-07T07:25:07;17;16;
49914;PMS5003;35806;47.958;13.158;2023-09-07T07:27:34;21;19;
49914;PMS5003;35806;47.958;13.158;2023-09-07T07:30:01;22;20;
49914;PMS5003;35806;47.958;13.158;2023-09-07T07:32:28;17;17;
49914;PMS5003;35806;47.958;13.158;2023-09-07T07:34:55;23;18;
49914;PMS5003;35806;47.958;13.158;2023-09-07T07:37:23;17;16;
49914;PMS5003;35806;47.958;13.158;2023-09-07T07:39:50;20;19;
49914;PMS5003;35806;47.958;13.158;2023-09-07T07:42:17;20;18;
49914;PMS5003;35806;47.958;13.158;2023-09-07T07:44:44;21;21;
49914;PMS5003;35806;47.958;13.158;2023-09-07T07:47:11;17;17;
49914;PMS5003;35806;47.958;13.158;2023-09-07T07:49:39;19;19;
49914;PMS5003;35806;47.958;13.158;2023-09-07T07:52:06;20;19;
49914;PMS5003;35806;47.958;13.158;2023-09-07T07:54:33;22;18;
49914;PMS5003;35806;47.958;13.158;2023-09-07T07:57:01;15;15;
49914;PMS5003;35806;47.958;13.158;2023-09-07T07:59:28;18;18;
49914;PMS5003;35806;47.958;13.158;2023-09-07T08:01:55;15;15;
49914;PMS5003;35806;47.958;13.158;2023-09-07T08:04:23;18;18;
49914;PMS5003;35806;47.958;13.158;2023-09-07T08:06:50;21;21;
49914;PMS5003;35806;47.958;13.158;2023-09-07T08:09:18;19;18;
49914;PMS5003;35806;47.958;13.158;2023-09-07T08:11:45;24;21;
49914;PMS5003;35806;47.958;13.158;2023-09-07T08:14:12;18;18;
49914;PMS5003;35806;47.958;13.158;2023-09-07T08:16:39;20;20;
49914;PMS5003;35806;47.958;13.158;2023-09-07T08:19:07;17;17;
49914;PMS5003;35806;47.958;13.158;2023-09-07T08:21:34;22;22;
49914;PMS5003;35806;47.958;13.158;2023-09-07T08:24:01;18;18;
49914;PMS5003;35806;47.958;13.158;2023-09-07T08:26:29;19;19;
49914;PMS5003;35806;47.958;13.158;2023-09-07T08:28:57;20;19;
49914;PMS5003;35806;47.958;13.158;2023-09-07T08:31:24;17;17;
49914;PMS5003;35806;47.958;13.158;2023-09-07T08:33:51;22;21;
49914;PMS5003;35806;47.958;13.158;2023-09-07T08:36:19;19;17;
49914;PMS5003;35806;47.958;13.158;2023-09-07T08:38:46;17;16;
49914;PMS5003;35806;47.958;13.158;2023-09-07T08:41:14;21;20;
49914;PMS5003;35806;47.958;13.158;2023-09-07T08:43:44;18;17;
49914;PMS5003;35806;47.958;13.158;2023-09-07T08:46:13;20;17;
49914;PMS5003;35806;47.958;13.158;2023-09-07T08:48:42;18;16;
49914;PMS5003;35806;47.958;13.158;2023-09-07T08:51:10;19;18;
49914;PMS5003;35806;47.958;13.158;2023-09-07T08:53:39;22;21;
49914;PMS5003;35806;47.958;13.158;2023-09-07T08:56:07;17;16;
49914;PMS5003;35806;47.958;13.158;2023-09-07T08:58:34;22;21;
49914;PMS5003;35806;47.958;13.158;2023-09-07T09:01:01;20;18;
49914;PMS5003;35806;47.958;13.158;2023-09-07T09:03:28;20;17;
49914;PMS5003;35806;47.958;13.158;2023-09-07T09:06:00;16;16;
49914;PMS5003;35806;47.958;13.158;2023-09-07T09:08:29;17;16;
49914;PMS5003;35806;47.958;13.158;2023-09-07T09:10:59;22;18;
49914;PMS5003;35806;47.958;13.158;2023-09-07T09:13:29;17;17;
49914;PMS5003;35806;47.958;13.158;2023-09-07T09:15:58;16;16;
49914;PMS5003;35806;47.958;13.158;2023-09-07T09:18:26;20;20;
49914;PMS5003;35806;47.958;13.158;2023-09-07T09:20:54;19;18;
49914;PMS5003;35806;47.958;13.158;2023-09-07T09:23:22;16;15;
49914;PMS5003;35806;47.958;13.158;2023-09-07T09:25:50;18;16;
49914;PMS5003;35806;47.958;13.158;2023-09-07T09:28:17;21;20;
49914;PMS5003;35806;47.958;13.158;2023-09-07T09:30:45;15;15;
49914;PMS5003;35806;47.958;13.158;2023-09-07T09:33:13;17;17;
49914;PMS5003;35806;47.958;13.158;2023-09-07T09:35:46;15;15;
49914;PMS5003;35806;47.958;13.158;2023-09-07T09:38:15;17;16;
49914;PMS5003;35806;47.958;13.158;2023-09-07T09:40:48;16;15;
49914;PMS5003;35806;47.958;13.158;2023-09-07T09:43:20;14;13;
49914;PMS5003;35806;47.958;13.158;2023-09-07T09:45:48;16;16;
49914;PMS5003;35806;47.958;13.158;2023-09-07T09:48:16;18;18;
49914;PMS5003;35806;47.958;13.158;2023-09-07T09:50:46;15;15;
49914;PMS5003;35806;47.958;13.158;2023-09-07T09:53:14;15;15;
49914;PMS5003;35806;47.958;13.158;2023-09-07T09:55:42;16;15;
49914;PMS5003;35806;47.958;13.158;2023-09-07T09:58:09;17;17;
49914;PMS5003;35806;47.958;13.158;2023-09-07T10:00:37;16;15;
49914;PMS5003;35806;47.958;13.158;2023-09-07T10:03:05;13;13;
49914;PMS5003;35806;47.958;13.158;2023-09-07T10:05:35;15;13;
49914;PMS5003;35806;47.958;13.158;2023-09-07T10:08:04;15;14;
49914;PMS5003;35806;47.958;13.158;2023-09-07T10:10:35;14;12;
49914;PMS5003;35806;47.958;13.158;2023-09-07T10:13:02;15;15;
49914;PMS5003;35806;47.958;13.158;2023-09-07T10:15:31;16;16;
49914;PMS5003;35806;47.958;13.158;2023-09-07T10:18:03;17;14;
49914;PMS5003;35806;47.958;13.158;2023-09-07T10:20:35;15;15;
49914;PMS5003;35806;47.958;13.158;2023-09-07T10:23:15;14;12;
49914;PMS5003;35806;47.958;13.158;2023-09-07T10:25:42;15;14;
49914;PMS5003;35806;47.958;13.158;2023-09-07T10:28:18;16;15;
49914;PMS5003;35806;47.958;13.158;2023-09-07T10:30:46;15;15;
49914;PMS5003;35806;47.958;13.158;2023-09-07T10:33:25;14;13;
49914;PMS5003;35806;47.958;13.158;2023-09-07T10:35:52;13;13;
49914;PMS5003;35806;47.958;13.158;2023-09-07T10:38:19;15;14;
49914;PMS5003;35806;47.958;13.158;2023-09-07T10:40:47;13;13;
49914;PMS5003;35806;47.958;13.158;2023-09-07T10:43:14;10;10;
49914;PMS5003;35806;47.958;13.158;2023-09-07T10:45:44;14;14;
49914;PMS5003;35806;47.958;13.158;2023-09-07T10:48:12;12;12;
49914;PMS5003;35806;47.958;13.158;2023-09-07T10:50:43;15;15;
49914;PMS5003;35806;47.958;13.158;2023-09-07T10:53:12;14;13;
49914;PMS5003;35806;47.958;13.158;2023-09-07T10:55:41;12;12;
49914;PMS5003;35806;47.958;13.158;2023-09-07T10:58:08;14;14;
49914;PMS5003;35806;47.958;13.158;2023-09-07T11:00:36;16;16;
49914;PMS5003;35806;47.958;13.158;2023-09-07T11:03:07;16;14;
49914;PMS5003;35806;47.958;13.158;2023-09-07T11:05:35;19;17;
49914;PMS5003;35806;47.958;13.158;2023-09-07T11:08:03;10;10;
49914;PMS5003;35806;47.958;13.158;2023-09-07T11:10:33;11;11;
49914;PMS5003;35806;47.958;13.158;2023-09-07T11:13:02;11;11;
49914;PMS5003;35806;47.958;13.158;2023-09-07T11:15:30;14;12;
49914;PMS5003;35806;47.958;13.158;2023-09-07T11:17:57;13;12;
49914;PMS5003;35806;47.958;13.158;2023-09-07T11:20:52;12;12;
49914;PMS5003;35806;47.958;13.158;2023-09-07T11:23:20;13;9;
49914;PMS5003;35806;47.958;13.158;2023-09-07T11:25:48;14;13;
49914;PMS5003;35806;47.958;13.158;2023-09-07T11:28:17;15;13;
49914;PMS5003;35806;47.958;13.158;2023-09-07T11:30:52;14;13;
49914;PMS5003;35806;47.958;13.158;2023-09-07T11:33:21;16;16;
49914;PMS5003;35806;47.958;13.158;2023-09-07T11:35:49;12;12;
49914;PMS5003;35806;47.958;13.158;2023-09-07T11:38:17;16;15;
49914;PMS5003;35806;47.958;13.158;2023-09-07T11:40:44;14;13;
49914;PMS5003;35806;47.958;13.158;2023-09-07T11:43:12;15;14;
49914;PMS5003;35806;47.958;13.158;2023-09-07T11:45:39;20;15;
49914;PMS5003;35806;47.958;13.158;2023-09-07T11:48:12;12;12;
49914;PMS5003;35806;47.958;13.158;2023-09-07T11:50:40;14;14;
49914;PMS5003;35806;47.958;13.158;2023-09-07T11:53:08;12;12;
49914;PMS5003;35806;47.958;13.158;2023-09-07T11:55:35;13;13;
49914;PMS5003;35806;47.958;13.158;2023-09-07T11:58:03;14;13;
49914;PMS5003;35806;47.958;13.158;2023-09-07T12:00:31;12;12;
49914;PMS5003;35806;47.958;13.158;2023-09-07T12:02:58;16;16;
49914;PMS5003;35806;47.958;13.158;2023-09-07T12:05:27;12;11;
49914;PMS5003;35806;47.958;13.158;2023-09-07T12:07:54;12;12;
49914;PMS5003;35806;47.958;13.158;2023-09-07T12:10:35;16;15;
49914;PMS5003;35806;47.958;13.158;2023-09-07T12:13:03;13;13;
49914;PMS5003;35806;47.958;13.158;2023-09-07T12:15:30;15;13;
49914;PMS5003;35806;47.958;13.158;2023-09-07T12:17:57;16;15;
49914;PMS5003;35806;47.958;13.158;2023-09-07T12:20:25;12;12;
49914;PMS5003;35806;47.958;13.158;2023-09-07T12:22:52;13;12;
49914;PMS5003;35806;47.958;13.158;2023-09-07T12:25:20;16;14;
49914;PMS5003;35806;47.958;13.158;2023-09-07T12:28:04;13;13;
49914;PMS5003;35806;47.958;13.158;2023-09-07T12:30:32;13;13;
49914;PMS5003;35806;47.958;13.158;2023-09-07T12:33:00;17;17;
49914;PMS5003;35806;47.958;13.158;2023-09-07T12:35:34;13;13;
49914;PMS5003;35806;47.958;13.158;2023-09-07T12:38:14;15;15;
49914;PMS5003;35806;47.958;13.158;2023-09-07T12:40:42;12;11;
49914;PMS5003;35806;47.958;13.158;2023-09-07T12:43:09;12;12;
49914;PMS5003;35806;47.958;13.158;2023-09-07T12:45:37;11;11;
49914;PMS5003;35806;47.958;13.158;2023-09-07T12:48:04;16;15;
49914;PMS5003;35806;47.958;13.158;2023-09-07T12:50:32;14;14;
49914;PMS5003;35806;47.958;13.158;2023-09-07T12:53:00;14;14;
49914;PMS5003;35806;47.958;13.158;2023-09-07T12:55:27;13;13;
49914;PMS5003;35806;47.958;13.158;2023-09-07T12:57:54;15;13;
49914;PMS5003;35806;47.958;13.158;2023-09-07T13:00:22;14;14;
49914;PMS5003;35806;47.958;13.158;2023-09-07T13:02:49;13;12;
49914;PMS5003;35806;47.958;13.158;2023-09-07T13:05:17;12;12;
49914;PMS5003;35806;47.958;13.158;2023-09-07T13:07:45;12;12;
49914;PMS5003;35806;47.958;13.158;2023-09-07T13:10:12;14;14;
49914;PMS5003;35806;47.958;13.158;2023-09-07T13:12:40;13;12;
49914;PMS5003;35806;47.958;13.158;2023-09-07T13:15:08;12;12;
49914;PMS5003;35806;47.958;13.158;2023-09-07T13:17:36;12;11;
49914;PMS5003;35806;47.958;13.158;2023-09-07T13:20:03;12;12;
49914;PMS5003;35806;47.958;13.158;2023-09-07T13:22:31;15;13;
49914;PMS5003;35806;47.958;13.158;2023-09-07T13:24:59;14;13;
49914;PMS5003;35806;47.958;13.158;2023-09-07T13:27:26;12;12;
49914;PMS5003;35806;47.958;13.158;2023-09-07T13:29:54;16;14;
49914;PMS5003;35806;47.958;13.158;2023-09-07T13:32:21;12;12;
49914;PMS5003;35806;47.958;13.158;2023-09-07T13:34:48;13;12;
49914;PMS5003;35806;47.958;13.158;2023-09-07T13:37:16;11;11;
49914;PMS5003;35806;47.958;13.158;2023-09-07T13:39:43;12;12;
49914;PMS5003;35806;47.958;13.158;2023-09-07T13:42:11;9;9;
49914;PMS5003;35806;47.958;13.158;2023-09-07T13:44:38;16;13;
49914;PMS5003;35806;47.958;13.158;2023-09-07T13:47:06;13;13;
49914;PMS5003;35806;47.958;13.158;2023-09-07T13:49:33;9;9;
49914;PMS5003;35806;47.958;13.158;2023-09-07T13:52:01;10;10;
49914;PMS5003;35806;47.958;13.158;2023-09-07T13:54:28;10;10;
49914;PMS5003;35806;47.958;13.158;2023-09-07T13:56:56;10;10;
49914;PMS5003;35806;47.958;13.158;2023-09-07T13:59:23;13;13;
49914;PMS5003;35806;47.958;13.158;2023-09-07T14:01:51;14;14;
49914;PMS5003;35806;47.958;13.158;2023-09-07T14:04:18;13;11;
49914;PMS5003;35806;47.958;13.158;2023-09-07T14:06:45;12;11;
49914;PMS5003;35806;47.958;13.158;2023-09-07T14:09:17;12;11;
49914;PMS5003;35806;47.958;13.158;2023-09-07T14:11:44;15;13;
49914;PMS5003;35806;47.958;13.158;2023-09-07T14:14:12;11;11;
49914;PMS5003;35806;47.958;13.158;2023-09-07T14:16:39;13;13;
49914;PMS5003;35806;47.958;13.158;2023-09-07T14:19:07;12;12;
49914;PMS5003;35806;47.958;13.158;2023-09-07T14:21:34;11;11;
49914;PMS5003;35806;47.958;13.158;2023-09-07T14:24:01;13;12;
49914;PMS5003;35806;47.958;13.158;2023-09-07T14:26:29;10;10;
49914;PMS5003;35806;47.958;13.158;2023-09-07T14:28:57;9;9;
49914;PMS5003;35806;47.958;13.158;2023-09-07T14:31:29;10;10;
49914;PMS5003;35806;47.958;13.158;2023-09-07T14:33:57;12;12;
49914;PMS5003;35806;47.958;13.158;2023-09-07T14:36:25;14;13;
49914;PMS5003;35806;47.958;13.158;2023-09-07T14:38:52;13;12;
49914;PMS5003;35806;47.958;13.158;2023-09-07T14:41:19;11;11;
49914;PMS5003;35806;47.958;13.158;2023-09-07T14:43:46;13;13;
49914;PMS5003;35806;47.958;13.158;2023-09-07T14:46:15;11;11;
49914;PMS5003;35806;47.958;13.158;2023-09-07T14:48:43;13;13;
49914;PMS5003;35806;47.958;13.158;2023-09-07T14:51:10;17;14;
49914;PMS5003;35806;47.958;13.158;2023-09-07T14:53:37;13;13;
49914;PMS5003;35806;47.958;13.158;2023-09-07T14:56:04;11;10;
49914;PMS5003;35806;47.958;13.158;2023-09-07T14:58:32;12;12;
49914;PMS5003;35806;47.958;13.158;2023-09-07T15:00:59;11;11;
49914;PMS5003;35806;47.958;13.158;2023-09-07T15:03:27;15;13;
49914;PMS5003;35806;47.958;13.158;2023-09-07T15:05:54;12;12;
49914;PMS5003;35806;47.958;13.158;2023-09-07T15:08:22;10;10;
49914;PMS5003;35806;47.958;13.158;2023-09-07T15:10:49;11;11;
49914;PMS5003;35806;47.958;13.158;2023-09-07T15:13:16;13;12;
49914;PMS5003;35806;47.958;13.158;2023-09-07T15:15:44;10;10;
49914;PMS5003;35806;47.958;13.158;2023-09-07T15:18:11;12;11;
49914;PMS5003;35806;47.958;13.158;2023-09-07T15:20:39;15;13;
49914;PMS5003;35806;47.958;13.158;2023-09-07T15:23:06;11;11;
49914;PMS5003;35806;47.958;13.158;2023-09-07T15:25:34;11;11;
49914;PMS5003;35806;47.958;13.158;2023-09-07T15:28:01;13;13;
49914;PMS5003;35806;47.958;13.158;2023-09-07T15:30:29;13;12;
49914;PMS5003;35806;47.958;13.158;2023-09-07T15:32:57;10;10;
49914;PMS5003;35806;47.958;13.158;2023-09-07T15:35:25;12;12;
49914;PMS5003;35806;47.958;13.158;2023-09-07T15:37:52;13;13;
49914;PMS5003;35806;47.958;13.158;2023-09-07T15:40:20;11;11;
49914;PMS5003;35806;47.958;13.158;2023-09-07T15:42:47;11;10;
49914;PMS5003;35806;47.958;13.158;2023-09-07T15:45:14;10;10;
49914;PMS5003;35806;47.958;13.158;2023-09-07T15:47:42;8;8;
49914;PMS5003;35806;47.958;13.158;2023-09-07T15:50:09;11;11;
49914;PMS5003;35806;47.958;13.158;2023-09-07T15:52:43;12;12;
49914;PMS5003;35806;47.958;13.158;2023-09-07T15:55:11;14;11;
49914;PMS5003;35806;47.958;13.158;2023-09-07T15:57:38;10;10;
49914;PMS5003;35806;47.958;13.158;2023-09-07T16:00:06;14;13;
49914;PMS5003;35806;47.958;13.158;2023-09-07T16:02:34;15;13;
49914;PMS5003;35806;47.958;13.158;2023-09-07T16:05:01;11;11;
49914;PMS5003;35806;47.958;13.158;2023-09-07T16:07:29;15;12;
49914;PMS5003;35806;47.958;13.158;2023-09-07T16:09:56;11;11;
49914;PMS5003;35806;47.958;13.158;2023-09-07T16:12:24;13;12;
49914;PMS5003;35806;47.958;13.158;2023-09-07T16:14:52;13;12;
49914;PMS5003;35806;47.958;13.158;2023-09-07T16:17:20;12;11;
49914;PMS5003;35806;47.958;13.158;2023-09-07T16:19:47;10;10;
49914;PMS5003;35806;47.958;13.158;2023-09-07T16:22:14;11;11;